KORLKDAB

Guest
Details From KORL - Executive
To KDAB - Daytona Beach Intl
Flight Number -
Tags Routegen
Created
Modified
Stats Distance 40 nm / 75 km
Max Altitude 0 ft / 0 m
Waypoints 2
Social Downloads 0
Likes 0
Share VATSIM

Download

Looking for another format? Having issues loading an existing format? Contact us
Advertisement - Login to hide

Notes

None

Route

KORL KDAB

ID Type Via Altitude Latitude Longitude Leg Dist Tot Dist Heading (true) Name
O KORL APT - 0 ft / 0 m 28.54283˚ -81.33927˚ - 0 nm - -
O KDAB APT - 0 ft / 0 m 29.17255˚ -81.07779˚ 40 nm 40 nm 20° / 20° -

Altitude Profile

Advertisement - Login to hide

KORL

Details ICAO KORL (ORL)
Name Orando Executive
Region United States
Timezone America/New_York (UTC-5.0)
Stats Elevation 112 ft / 34 m (AMSL)
Location 28.545372° -81.333261°
Runways 2
Magnetic Variation 6.403° W

METAR

KORL 151753Z 23012KT 10SM FEW041 BKN060 23/14 A3005 RMK AO2 SLP180 T02330139 10244 20161 58015

Decode

TAF

Not found

Departure Runways

ID Width Length Bearing (true) Bearing (mag) Surface Threshold Offset Overrun Length
07 150 ft / 46 m 5,999 ft / 1,828 m 66.58° 72.98° Asphalt 0 ft / 0 m 0 ft / 0 m
13 100 ft / 30 m 4,640 ft / 1,414 m 130.99° 137.39° Asphalt 0 ft / 0 m 561 ft / 171 m
25 150 ft / 46 m 5,999 ft / 1,828 m 246.59° 252.99° Asphalt 0 ft / 0 m 0 ft / 0 m
31 100 ft / 30 m 4,640 ft / 1,414 m 311.00° 317.40° Asphalt 0 ft / 0 m 374 ft / 114 m

KDAB

Details ICAO KDAB (DAB)
Name Daytona Beach Intl
Region United States
Timezone America/New_York (UTC-5.0)
Stats Elevation 34 ft / 10 m (AMSL)
Location 29.179918° -81.055946°
Runways 3
Magnetic Variation 6.673° W

METAR

KDAB 151753Z 22011KT 10SM FEW070 BKN250 23/15 A3003 RMK AO2 SLP168 T02330150 10239 20150 58020

Decode

TAF

TAF KDAB 151720Z 1518/1618 23009KT P6SM SCT045 BKN060 FM160000 VRB05KT P6SM FEW040 SCT250 FM161500 02007KT P6SM FEW030 BKN070

Decode

Destination Runways

ID Width Length Bearing (true) Bearing (mag) Surface Threshold Offset Overrun Length
07L 151 ft / 46 m 10,492 ft / 3,198 m 65.10° 71.77° Asphalt 689 ft / 210 m 0 ft / 0 m
07R 98 ft / 30 m 3,193 ft / 973 m 65.04° 71.71° Asphalt 0 ft / 0 m 0 ft / 0 m
16 151 ft / 46 m 6,018 ft / 1,834 m 157.27° 163.94° Asphalt 0 ft / 0 m 200 ft / 61 m
25L 98 ft / 30 m 3,193 ft / 973 m 245.04° 251.71° Asphalt 0 ft / 0 m 0 ft / 0 m
25R 151 ft / 46 m 10,492 ft / 3,198 m 245.12° 251.79° Asphalt 0 ft / 0 m 0 ft / 0 m
34 151 ft / 46 m 6,018 ft / 1,834 m 337.27° 343.94° Asphalt 0 ft / 0 m 200 ft / 61 m

Approach Navaids

Runway Type Ident Frequency Range Bearing (true) Bearing (mag) Slope Elevation
07L Localiser IDAB 109.70 MHz 18 nm / 33 km 65.12° 71.79° - 27 ft / 8 m (AMSL)
07L Glidescope IDAB 109.70 MHz 10 nm / 19 km 65.11° 71.78° 3.00° 26 ft / 8 m (AMSL)
25R Localiser IDBF 109.70 MHz 18 nm / 33 km 245.11° 251.78° - 34 ft / 10 m (AMSL)
25R Glidescope IDBF 109.70 MHz 10 nm / 19 km 245.11° 251.78° 3.00° 34 ft / 10 m (AMSL)
25R DME IDBF 109.70 MHz 18 nm / 33 km - - - 34 ft / 10 m (AMSL)